Station Historical Data
Daily Summary for February 16, 2017 Units:  Both    English   Metric
« Previous Day
Next Day »
Daily Weekly Monthly Yearly Custom
  High: Low: Average:
Temperature: 28.0 °F /  -2.2 °C 18.9 °F /  -7.3 °C 23.2 °F /  -4.9 °C
Dew Point: 19.7 °F /  -6.8 °C 14.0 °F /  -10 °C 16.3 °F /  -8.7 °C
Humidity: 85% 62% 75%
Wind Speed: 11.0mph /  17.7km/h - 4.9mph /  7.9km/h
Wind Gust: 15.0mph /  24.1km/h - -
Wind- - WNW
Pressure: 29.97 in /  1014.8 hPa 29.67 in /  1004.6 hPa -
Precipitation: 0.00 in /  0 mm    
Historical Graphs
 
 
Tabular Data for February 16, 2017
Time Temperature Dew Point Pressure Wind Wind Speed Wind Gust Humidity Rainfall Rate (Hourly)
00:04 23.5 °F /  -4.7 °C 19.7 °F /  -6.8 °C 29.68in /  1005hPa WNW 4.0mph /  6.4km/h 10.0mph /  16.1km/h 85% 0.00in /  0mm
00:09 23.5 °F /  -4.7 °C 19.7 °F /  -6.8 °C 29.68in /  1005hPa WNW 5.0mph /  8km/h 12.0mph /  19.3km/h 85% 0.00in /  0mm
00:14 23.6 °F /  -4.7 °C 19.5 °F /  -6.9 °C 29.68in /  1005hPa WNW 5.0mph /  8km/h 12.0mph /  19.3km/h 84% 0.00in /  0mm
00:19 23.8 °F /  -4.6 °C 19.7 °F /  -6.8 °C 29.68in /  1005hPa WNW 4.0mph /  6.4km/h 7.0mph /  11.3km/h 84% 0.00in /  0mm
00:24 23.8 °F /  -4.6 °C 19.7 °F /  -6.8 °C 29.68in /  1005hPa WNW 5.0mph /  8km/h 11.0mph /  17.7km/h 84% 0.00in /  0mm
00:29 23.9 °F /  -4.5 °C 19.5 °F /  -6.9 °C 29.68in /  1005hPa WNW 5.0mph /  8km/h 11.0mph /  17.7km/h 83% 0.00in /  0mm
00:34 24.0 °F /  -4.4 °C 19.3 °F /  -7.1 °C 29.68in /  1005hPa West 3.0mph /  4.8km/h 10.0mph /  16.1km/h 82% 0.00in /  0mm
00:39 24.1 °F /  -4.4 °C 19.1 °F /  -7.2 °C 29.68in /  1005hPa NNW 4.0mph /  6.4km/h 10.0mph /  16.1km/h 81% 0.00in /  0mm
00:44 24.2 °F /  -4.3 °C 19.2 °F /  -7.1 °C 29.68in /  1005hPa WNW 4.0mph /  6.4km/h 10.0mph /  16.1km/h 81% 0.00in /  0mm
00:49 24.2 °F /  -4.3 °C 18.9 °F /  -7.3 °C 29.68in /  1005hPa WNW 5.0mph /  8km/h 11.0mph /  17.7km/h 80% 0.00in /  0mm
00:54 24.2 °F /  -4.3 °C 18.6 °F /  -7.4 °C 29.68in /  1005hPa WNW 5.0mph /  8km/h 11.0mph /  17.7km/h 79% 0.00in /  0mm
00:59 24.2 °F /  -4.3 °C 18.6 °F /  -7.4 °C 29.68in /  1005hPa WNW 5.0mph /  8km/h 11.0mph /  17.7km/h 79% 0.00in /  0mm
01:04 24.2 °F /  -4.3 °C 18.3 °F /  -7.6 °C 29.67in /  1004.6hPa WNW 5.0mph /  8km/h 11.0mph /  17.7km/h 78% 0.00in /  0mm
01:09 24.2 °F /  -4.3 °C 18.3 °F /  -7.6 °C 29.68in /  1005hPa NW 4.0mph /  6.4km/h 9.0mph /  14.5km/h 78% 0.00in /  0mm
01:14 24.3 °F /  -4.3 °C 18.1 °F /  -7.7 °C 29.68in /  1005hPa NW 5.0mph /  8km/h 9.0mph /  14.5km/h 77% 0.00in /  0mm
01:19 24.3 °F /  -4.3 °C 18.1 °F /  -7.7 °C 29.68in /  1005hPa WNW 4.0mph /  6.4km/h 7.0mph /  11.3km/h 77% 0.00in /  0mm
01:24 24.4 °F /  -4.2 °C 18.2 °F /  -7.7 °C 29.68in /  1005hPa WNW 3.0mph /  4.8km/h 7.0mph /  11.3km/h 77% 0.00in /  0mm
01:29 24.5 °F /  -4.2 °C 18.3 °F /  -7.6 °C 29.68in /  1005hPa WNW 4.0mph /  6.4km/h 8.0mph /  12.9km/h 77% 0.00in /  0mm
01:34 24.4 °F /  -4.2 °C 18.2 °F /  -7.7 °C 29.68in /  1005hPa NW 4.0mph /  6.4km/h 7.0mph /  11.3km/h 77% 0.00in /  0mm
01:39 24.5 °F /  -4.2 °C 18.3 °F /  -7.6 °C 29.68in /  1005hPa WNW 7.0mph /  11.3km/h 12.0mph /  19.3km/h 77% 0.00in /  0mm
01:44 24.5 °F /  -4.2 °C 18.6 °F /  -7.4 °C 29.68in /  1005hPa WNW 3.0mph /  4.8km/h 8.0mph /  12.9km/h 78% 0.00in /  0mm
01:49 24.5 °F /  -4.2 °C 18.3 °F /  -7.6 °C 29.68in /  1005hPa NW 9.0mph /  14.5km/h 14.0mph /  22.5km/h 77% 0.00in /  0mm
01:54 24.5 °F /  -4.2 °C 18.3 °F /  -7.6 °C 29.68in /  1005hPa WNW 5.0mph /  8km/h 14.0mph /  22.5km/h 77% 0.00in /  0mm
01:59 24.5 °F /  -4.2 °C 18.3 °F /  -7.6 °C 29.68in /  1005hPa WNW 5.0mph /  8km/h 13.0mph /  20.9km/h 77% 0.00in /  0mm
02:04 24.4 °F /  -4.2 °C 18.2 °F /  -7.7 °C 29.69in /  1005.3hPa WNW 3.0mph /  4.8km/h 8.0mph /  12.9km/h 77% 0.00in /  0mm
02:09 24.3 °F /  -4.3 °C 18.1 °F /  -7.7 °C 29.69in /  1005.3hPa WNW 4.0mph /  6.4km/h 9.0mph /  14.5km/h 77% 0.00in /  0mm
02:14 24.3 °F /  -4.3 °C 18.1 °F /  -7.7 °C 29.69in /  1005.3hPa NW 4.0mph /  6.4km/h 9.0mph /  14.5km/h 77% 0.00in /  0mm
02:19 24.3 °F /  -4.3 °C 18.1 °F /  -7.7 °C 29.69in /  1005.3hPa NW 6.0mph /  9.7km/h 11.0mph /  17.7km/h 77% 0.00in /  0mm
02:24 24.3 °F /  -4.3 °C 18.1 °F /  -7.7 °C 29.69in /  1005.3hPa NNW 6.0mph /  9.7km/h 10.0mph /  16.1km/h 77% 0.00in /  0mm
02:29 24.2 °F /  -4.3 °C 18.0 °F /  -7.8 °C 29.69in /  1005.3hPa NW 4.0mph /  6.4km/h 10.0mph /  16.1km/h 77% 0.00in /  0mm
02:34 24.2 °F /  -4.3 °C 18.0 °F /  -7.8 °C 29.69in /  1005.3hPa North 4.0mph /  6.4km/h 7.0mph /  11.3km/h 77% 0.00in /  0mm
02:39 24.2 °F /  -4.3 °C 18.0 °F /  -7.8 °C 29.69in /  1005.3hPa West 6.0mph /  9.7km/h 8.0mph /  12.9km/h 77% 0.00in /  0mm
02:44 24.1 °F /  -4.4 °C 17.9 °F /  -7.8 °C 29.69in /  1005.3hPa WNW 4.0mph /  6.4km/h 12.0mph /  19.3km/h 77% 0.00in /  0mm
02:49 24.0 °F /  -4.4 °C 17.8 °F /  -7.9 °C 29.69in /  1005.3hPa WNW 3.0mph /  4.8km/h 10.0mph /  16.1km/h 77% 0.00in /  0mm
02:54 24.0 °F /  -4.4 °C 17.8 °F /  -7.9 °C 29.69in /  1005.3hPa NNW 3.0mph /  4.8km/h 12.0mph /  19.3km/h 77% 0.00in /  0mm
02:59 24.0 °F /  -4.4 °C 17.8 °F /  -7.9 °C 29.69in /  1005.3hPa NW 5.0mph /  8km/h 12.0mph /  19.3km/h 77% 0.00in /  0mm
03:04 24.0 °F /  -4.4 °C 17.8 °F /  -7.9 °C 29.69in /  1005.3hPa NW 7.0mph /  11.3km/h 8.0mph /  12.9km/h 77% 0.00in /  0mm
03:09 24.0 °F /  -4.4 °C 17.8 °F /  -7.9 °C 29.69in /  1005.3hPa NW 3.0mph /  4.8km/h 7.0mph /  11.3km/h 77% 0.00in /  0mm
03:14 23.9 °F /  -4.5 °C 17.7 °F /  -7.9 °C 29.69in /  1005.3hPa WNW 4.0mph /  6.4km/h 11.0mph /  17.7km/h 77% 0.00in /  0mm
03:19 23.8 °F /  -4.6 °C 17.6 °F /  -8 °C 29.69in /  1005.3hPa NW 3.0mph /  4.8km/h 12.0mph /  19.3km/h 77% 0.00in /  0mm
03:24 23.7 °F /  -4.6 °C 17.5 °F /  -8.1 °C 29.69in /  1005.3hPa NW 4.0mph /  6.4km/h 13.0mph /  20.9km/h 77% 0.00in /  0mm
03:29 23.6 °F /  -4.7 °C 17.4 °F /  -8.1 °C 29.69in /  1005.3hPa NW 5.0mph /  8km/h 13.0mph /  20.9km/h 77% 0.00in /  0mm
03:34 23.4 °F /  -4.8 °C 16.9 °F /  -8.4 °C 29.69in /  1005.3hPa NW 5.0mph /  8km/h 13.0mph /  20.9km/h 76% 0.00in /  0mm
03:39 23.4 °F /  -4.8 °C 16.9 °F /  -8.4 °C 29.70in /  1005.6hPa NW 5.0mph /  8km/h 12.0mph /  19.3km/h 76% 0.00in /  0mm
03:44 23.3 °F /  -4.8 °C 16.9 °F /  -8.4 °C 29.70in /  1005.6hPa WNW 6.0mph /  9.7km/h 11.0mph /  17.7km/h 76% 0.00in /  0mm
03:49 23.2 °F /  -4.9 °C 16.8 °F /  -8.4 °C 29.70in /  1005.6hPa NW 9.0mph /  14.5km/h 12.0mph /  19.3km/h 76% 0.00in /  0mm
03:54 23.1 °F /  -4.9 °C 17.0 °F /  -8.3 °C 29.70in /  1005.6hPa NW 8.0mph /  12.9km/h 12.0mph /  19.3km/h 77% 0.00in /  0mm
03:59 23.1 °F /  -4.9 °C 17.0 °F /  -8.3 °C 29.70in /  1005.6hPa West 6.0mph /  9.7km/h 13.0mph /  20.9km/h 77% 0.00in /  0mm
04:04 22.9 °F /  -5.1 °C 16.8 °F /  -8.4 °C 29.70in /  1005.6hPa NW 4.0mph /  6.4km/h 13.0mph /  20.9km/h 77% 0.00in /  0mm
04:09 22.9 °F /  -5.1 °C 16.8 °F /  -8.4 °C 29.71in /  1006hPa NW 4.0mph /  6.4km/h 13.0mph /  20.9km/h 77% 0.00in /  0mm
04:14 22.9 °F /  -5.1 °C 16.8 °F /  -8.4 °C 29.71in /  1006hPa NW 5.0mph /  8km/h 12.0mph /  19.3km/h 77% 0.00in /  0mm
04:19 22.7 °F /  -5.2 °C 16.6 °F /  -8.6 °C 29.71in /  1006hPa NW 5.0mph /  8km/h 9.0mph /  14.5km/h 77% 0.00in /  0mm
04:24 22.7 °F /  -5.2 °C 16.6 °F /  -8.6 °C 29.71in /  1006hPa NW 3.0mph /  4.8km/h 9.0mph /  14.5km/h 77% 0.00in /  0mm
04:29 22.5 °F /  -5.3 °C 16.4 °F /  -8.7 °C 29.71in /  1006hPa NW 6.0mph /  9.7km/h 13.0mph /  20.9km/h 77% 0.00in /  0mm
04:34 22.5 °F /  -5.3 °C 16.4 °F /  -8.7 °C 29.71in /  1006hPa NW 6.0mph /  9.7km/h 13.0mph /  20.9km/h 77% 0.00in /  0mm
04:39 22.4 °F /  -5.3 °C 16.3 °F /  -8.7 °C 29.72in /  1006.3hPa NW 5.0mph /  8km/h 12.0mph /  19.3km/h 77% 0.00in /  0mm
04:44 22.4 °F /  -5.3 °C 16.3 °F /  -8.7 °C 29.72in /  1006.3hPa NW 5.0mph /  8km/h 12.0mph /  19.3km/h 77% 0.00in /  0mm
04:49 22.3 °F /  -5.4 °C 16.2 °F /  -8.8 °C 29.72in /  1006.3hPa NW 6.0mph /  9.7km/h 10.0mph /  16.1km/h 77% 0.00in /  0mm
04:54 22.3 °F /  -5.4 °C 16.2 °F /  -8.8 °C 29.72in /  1006.3hPa NW 6.0mph /  9.7km/h 11.0mph /  17.7km/h 77% 0.00in /  0mm
04:59 22.4 °F /  -5.3 °C 16.3 °F /  -8.7 °C 29.72in /  1006.3hPa West 1.0mph /  1.6km/h 10.0mph /  16.1km/h 77% 0.00in /  0mm
05:04 22.3 °F /  -5.4 °C 16.2 °F /  -8.8 °C 29.72in /  1006.3hPa WNW 5.0mph /  8km/h 12.0mph /  19.3km/h 77% 0.00in /  0mm
05:09 22.2 °F /  -5.4 °C 16.4 °F /  -8.7 °C 29.72in /  1006.3hPa NNW 5.0mph /  8km/h 10.0mph /  16.1km/h 78% 0.00in /  0mm
05:14 22.2 °F /  -5.4 °C 16.4 °F /  -8.7 °C 29.72in /  1006.3hPa NW 5.0mph /  8km/h 10.0mph /  16.1km/h 78% 0.00in /  0mm
05:19 22.0 °F /  -5.6 °C 16.8 °F /  -8.4 °C 29.73in /  1006.7hPa WNW 6.0mph /  9.7km/h 10.0mph /  16.1km/h 80% 0.00in /  0mm
05:24 21.9 °F /  -5.6 °C 17.0 °F /  -8.3 °C 29.73in /  1006.7hPa North 5.0mph /  8km/h 10.0mph /  16.1km/h 81% 0.00in /  0mm
05:29 21.6 °F /  -5.8 °C 17.2 °F /  -8.2 °C 29.73in /  1006.7hPa WNW 2.0mph /  3.2km/h 11.0mph /  17.7km/h 83% 0.00in /  0mm
05:34 21.5 °F /  -5.8 °C 17.4 °F /  -8.1 °C 29.73in /  1006.7hPa NNW 4.0mph /  6.4km/h 11.0mph /  17.7km/h 84% 0.00in /  0mm
05:39 21.4 °F /  -5.9 °C 17.6 °F /  -8 °C 29.73in /  1006.7hPa NW 4.0mph /  6.4km/h 11.0mph /  17.7km/h 85% 0.00in /  0mm
05:44 21.4 °F /  -5.9 °C 17.6 °F /  -8 °C 29.73in /  1006.7hPa NNW 4.0mph /  6.4km/h 8.0mph /  12.9km/h 85% 0.00in /  0mm
05:49 21.3 °F /  -5.9 °C 17.5 °F /  -8.1 °C 29.74in /  1007hPa NNW 3.0mph /  4.8km/h 7.0mph /  11.3km/h 85% 0.00in /  0mm
05:54 21.2 °F /  -6 °C 17.4 °F /  -8.1 °C 29.74in /  1007hPa NNW 3.0mph /  4.8km/h 8.0mph /  12.9km/h 85% 0.00in /  0mm
05:59 21.1 °F /  -6.1 °C 17.3 °F /  -8.2 °C 29.74in /  1007hPa NNE 5.0mph /  8km/h 7.0mph /  11.3km/h 85% 0.00in /  0mm
06:04 20.9 °F /  -6.2 °C 16.8 °F /  -8.4 °C 29.74in /  1007hPa NNW 3.0mph /  4.8km/h 7.0mph /  11.3km/h 84% 0.00in /  0mm
06:09 20.9 °F /  -6.2 °C 16.8 °F /  -8.4 °C 29.75in /  1007.3hPa NW 3.0mph /  4.8km/h 7.0mph /  11.3km/h 84% 0.00in /  0mm
06:14 20.8 °F /  -6.2 °C 16.7 °F /  -8.5 °C 29.75in /  1007.3hPa NW 4.0mph /  6.4km/h 8.0mph /  12.9km/h 84% 0.00in /  0mm
06:19 20.6 °F /  -6.3 °C 16.5 °F /  -8.6 °C 29.75in /  1007.3hPa NNW 4.0mph /  6.4km/h 9.0mph /  14.5km/h 84% 0.00in /  0mm
06:24 20.5 °F /  -6.4 °C 16.2 °F /  -8.8 °C 29.75in /  1007.3hPa WNW 5.0mph /  8km/h 8.0mph /  12.9km/h 83% 0.00in /  0mm
06:29 20.4 °F /  -6.4 °C 15.8 °F /  -9 °C 29.75in /  1007.3hPa NNW 3.0mph /  4.8km/h 10.0mph /  16.1km/h 82% 0.00in /  0mm
06:34 20.3 °F /  -6.5 °C 15.4 °F /  -9.2 °C 29.75in /  1007.3hPa NNW 3.0mph /  4.8km/h 14.0mph /  22.5km/h 81% 0.00in /  0mm
06:39 20.2 °F /  -6.6 °C 15.0 °F /  -9.4 °C 29.76in /  1007.7hPa NW 4.0mph /  6.4km/h 11.0mph /  17.7km/h 80% 0.00in /  0mm
06:44 20.1 °F /  -6.6 °C 14.6 °F /  -9.7 °C 29.76in /  1007.7hPa NW 5.0mph /  8km/h 11.0mph /  17.7km/h 79% 0.00in /  0mm
06:49 19.9 °F /  -6.7 °C 14.4 °F /  -9.8 °C 29.76in /  1007.7hPa NNE 9.0mph /  14.5km/h 11.0mph /  17.7km/h 79% 0.00in /  0mm
06:54 19.7 °F /  -6.8 °C 14.5 °F /  -9.7 °C 29.76in /  1007.7hPa NW 5.0mph /  8km/h 13.0mph /  20.9km/h 80% 0.00in /  0mm
06:59 19.4 °F /  -7 °C 14.5 °F /  -9.7 °C 29.76in /  1007.7hPa WNW 3.0mph /  4.8km/h 10.0mph /  16.1km/h 81% 0.00in /  0mm
07:04 19.3 °F /  -7.1 °C 14.4 °F /  -9.8 °C 29.77in /  1008hPa West 8.0mph /  12.9km/h 9.0mph /  14.5km/h 81% 0.00in /  0mm
07:09 19.3 °F /  -7.1 °C 14.7 °F /  -9.6 °C 29.77in /  1008hPa NW 4.0mph /  6.4km/h 10.0mph /  16.1km/h 82% 0.00in /  0mm
07:14 19.2 °F /  -7.1 °C 14.6 °F /  -9.7 °C 29.77in /  1008hPa NW 4.0mph /  6.4km/h 10.0mph /  16.1km/h 82% 0.00in /  0mm
07:19 19.0 °F /  -7.2 °C 14.4 °F /  -9.8 °C 29.77in /  1008hPa NW 5.0mph /  8km/h 11.0mph /  17.7km/h 82% 0.00in /  0mm
07:24 19.0 °F /  -7.2 °C 14.1 °F /  -9.9 °C 29.78in /  1008.4hPa NNW 7.0mph /  11.3km/h 13.0mph /  20.9km/h 81% 0.00in /  0mm
07:29 18.9 °F /  -7.3 °C 14.0 °F /  -10 °C 29.78in /  1008.4hPa NNW 10.0mph /  16.1km/h 15.0mph /  24.1km/h 81% 0.00in /  0mm
07:34 18.9 °F /  -7.3 °C 14.0 °F /  -10 °C 29.78in /  1008.4hPa WNW 5.0mph /  8km/h 10.0mph /  16.1km/h 81% 0.00in /  0mm
07:39 19.1 °F /  -7.2 °C 14.2 °F /  -9.9 °C 29.79in /  1008.7hPa NW 4.0mph /  6.4km/h 10.0mph /  16.1km/h 81% 0.00in /  0mm
07:44 19.2 °F /  -7.1 °C 14.3 °F /  -9.8 °C 29.79in /  1008.7hPa NW 7.0mph /  11.3km/h 12.0mph /  19.3km/h 81% 0.00in /  0mm
07:49 19.3 °F /  -7.1 °C 14.4 °F /  -9.8 °C 29.80in /  1009hPa NW 5.0mph /  8km/h 12.0mph /  19.3km/h 81% 0.00in /  0mm
07:54 19.4 °F /  -7 °C 14.8 °F /  -9.6 °C 29.80in /  1009hPa WNW 6.0mph /  9.7km/h 10.0mph /  16.1km/h 82% 0.00in /  0mm
07:59 19.5 °F /  -6.9 °C 14.9 °F /  -9.5 °C 29.80in /  1009hPa NW 2.0mph /  3.2km/h 10.0mph /  16.1km/h 82% 0.00in /  0mm
08:04 19.5 °F /  -6.9 °C 15.2 °F /  -9.3 °C 29.80in /  1009hPa NNW 4.0mph /  6.4km/h 10.0mph /  16.1km/h 83% 0.00in /  0mm
08:09 19.5 °F /  -6.9 °C 15.2 °F /  -9.3 °C 29.80in /  1009hPa North 2.0mph /  3.2km/h 13.0mph /  20.9km/h 83% 0.00in /  0mm
08:14 19.6 °F /  -6.9 °C 15.6 °F /  -9.1 °C 29.81in /  1009.4hPa NW 4.0mph /  6.4km/h 13.0mph /  20.9km/h 84% 0.00in /  0mm
08:19 19.7 °F /  -6.8 °C 15.4 °F /  -9.2 °C 29.81in /  1009.4hPa NNW 3.0mph /  4.8km/h 9.0mph /  14.5km/h 83% 0.00in /  0mm
08:24 20.0 °F /  -6.7 °C 15.9 °F /  -8.9 °C 29.81in /  1009.4hPa NW 4.0mph /  6.4km/h 9.0mph /  14.5km/h 84% 0.00in /  0mm
08:29 19.9 °F /  -6.7 °C 15.6 °F /  -9.1 °C 29.81in /  1009.4hPa NW 5.0mph /  8km/h 9.0mph /  14.5km/h 83% 0.00in /  0mm
08:34 19.9 °F /  -6.7 °C 15.6 °F /  -9.1 °C 29.81in /  1009.4hPa NW 5.0mph /  8km/h 11.0mph /  17.7km/h 83% 0.00in /  0mm
08:39 20.1 °F /  -6.6 °C 15.8 °F /  -9 °C 29.81in /  1009.4hPa WNW 9.0mph /  14.5km/h 11.0mph /  17.7km/h 83% 0.00in /  0mm
08:49 20.2 °F /  -6.6 °C 15.6 °F /  -9.1 °C 29.82in /  1009.7hPa NW 3.0mph /  4.8km/h 10.0mph /  16.1km/h 82% 0.00in /  0mm
08:54 20.4 °F /  -6.4 °C 16.1 °F /  -8.8 °C 29.81in /  1009.4hPa NNW 7.0mph /  11.3km/h 7.0mph /  11.3km/h 83% 0.00in /  0mm
08:59 20.2 °F /  -6.6 °C 15.6 °F /  -9.1 °C 29.82in /  1009.7hPa NW 4.0mph /  6.4km/h 13.0mph /  20.9km/h 82% 0.00in /  0mm
09:04 20.1 °F /  -6.6 °C 15.5 °F /  -9.2 °C 29.82in /  1009.7hPa North 4.0mph /  6.4km/h 11.0mph /  17.7km/h 82% 0.00in /  0mm
09:09 20.2 °F /  -6.6 °C 15.6 °F /  -9.1 °C 29.82in /  1009.7hPa North 5.0mph /  8km/h 9.0mph /  14.5km/h 82% 0.00in /  0mm
09:14 20.4 °F /  -6.4 °C 15.8 °F /  -9 °C 29.82in /  1009.7hPa NW 5.0mph /  8km/h 12.0mph /  19.3km/h 82% 0.00in /  0mm
09:19 20.5 °F /  -6.4 °C 16.2 °F /  -8.8 °C 29.82in /  1009.7hPa NW 5.0mph /  8km/h 12.0mph /  19.3km/h 83% 0.00in /  0mm
09:24 20.9 °F /  -6.2 °C 16.5 °F /  -8.6 °C 29.82in /  1009.7hPa NW 4.0mph /  6.4km/h 10.0mph /  16.1km/h 83% 0.00in /  0mm
09:29 20.9 °F /  -6.2 °C 16.3 °F /  -8.7 °C 29.82in /  1009.7hPa NW 3.0mph /  4.8km/h 9.0mph /  14.5km/h 82% 0.00in /  0mm
09:34 20.9 °F /  -6.2 °C 16.3 °F /  -8.7 °C 29.82in /  1009.7hPa NW 3.0mph /  4.8km/h 8.0mph /  12.9km/h 82% 0.00in /  0mm
09:39 21.0 °F /  -6.1 °C 16.1 °F /  -8.8 °C 29.82in /  1009.7hPa NW 4.0mph /  6.4km/h 15.0mph /  24.1km/h 81% 0.00in /  0mm
09:44 21.3 °F /  -5.9 °C 16.4 °F /  -8.7 °C 29.83in /  1010hPa West 5.0mph /  8km/h 11.0mph /  17.7km/h 81% 0.00in /  0mm
09:49 21.2 °F /  -6 °C 15.7 °F /  -9.1 °C 29.83in /  1010hPa NW 6.0mph /  9.7km/h 12.0mph /  19.3km/h 79% 0.00in /  0mm
09:54 21.7 °F /  -5.7 °C 16.2 °F /  -8.8 °C 29.83in /  1010hPa NW 4.0mph /  6.4km/h 11.0mph /  17.7km/h 79% 0.00in /  0mm
09:59 21.4 °F /  -5.9 °C 15.6 °F /  -9.1 °C 29.83in /  1010hPa NW 7.0mph /  11.3km/h 15.0mph /  24.1km/h 78% 0.00in /  0mm
10:04 21.1 °F /  -6.1 °C 15.9 °F /  -8.9 °C 29.83in /  1010hPa WSW 7.0mph /  11.3km/h 10.0mph /  16.1km/h 80% 0.00in /  0mm
10:09 20.8 °F /  -6.2 °C 15.9 °F /  -8.9 °C 29.83in /  1010hPa WNW 4.0mph /  6.4km/h 11.0mph /  17.7km/h 81% 0.00in /  0mm
10:14 20.9 °F /  -6.2 °C 16.0 °F /  -8.9 °C 29.84in /  1010.4hPa WNW 5.0mph /  8km/h 10.0mph /  16.1km/h 81% 0.00in /  0mm
10:19 20.7 °F /  -6.3 °C 15.8 °F /  -9 °C 29.84in /  1010.4hPa NNW 5.0mph /  8km/h 9.0mph /  14.5km/h 81% 0.00in /  0mm
10:24 20.6 °F /  -6.3 °C 16.0 °F /  -8.9 °C 29.84in /  1010.4hPa NW 5.0mph /  8km/h 12.0mph /  19.3km/h 82% 0.00in /  0mm
10:29 20.3 °F /  -6.5 °C 15.7 °F /  -9.1 °C 29.84in /  1010.4hPa NW 5.0mph /  8km/h 12.0mph /  19.3km/h 82% 0.00in /  0mm
10:34 20.4 °F /  -6.4 °C 15.5 °F /  -9.2 °C 29.84in /  1010.4hPa NW 5.0mph /  8km/h 10.0mph /  16.1km/h 81% 0.00in /  0mm
10:39 20.5 °F /  -6.4 °C 15.6 °F /  -9.1 °C 29.84in /  1010.4hPa NNW 5.0mph /  8km/h 13.0mph /  20.9km/h 81% 0.00in /  0mm
10:44 20.5 °F /  -6.4 °C 15.3 °F /  -9.3 °C 29.84in /  1010.4hPa NNW 5.0mph /  8km/h 13.0mph /  20.9km/h 80% 0.00in /  0mm
10:49 20.5 °F /  -6.4 °C 15.3 °F /  -9.3 °C 29.85in /  1010.7hPa North 5.0mph /  8km/h 9.0mph /  14.5km/h 80% 0.00in /  0mm
10:54 20.9 °F /  -6.2 °C 15.7 °F /  -9.1 °C 29.85in /  1010.7hPa NW 4.0mph /  6.4km/h 10.0mph /  16.1km/h 80% 0.00in /  0mm
10:59 21.1 °F /  -6.1 °C 15.6 °F /  -9.1 °C 29.85in /  1010.7hPa NW 5.0mph /  8km/h 9.0mph /  14.5km/h 79% 0.00in /  0mm
11:04 21.2 °F /  -6 °C 15.4 °F /  -9.2 °C 29.85in /  1010.7hPa NW 3.0mph /  4.8km/h 7.0mph /  11.3km/h 78% 0.00in /  0mm
11:09 21.3 °F /  -5.9 °C 15.5 °F /  -9.2 °C 29.85in /  1010.7hPa NW 5.0mph /  8km/h 13.0mph /  20.9km/h 78% 0.00in /  0mm
11:14 21.1 °F /  -6.1 °C 14.7 °F /  -9.6 °C 29.85in /  1010.7hPa NW 6.0mph /  9.7km/h 9.0mph /  14.5km/h 76% 0.00in /  0mm
11:19 21.1 °F /  -6.1 °C 14.4 °F /  -9.8 °C 29.86in /  1011.1hPa NW 5.0mph /  8km/h 11.0mph /  17.7km/h 75% 0.00in /  0mm
11:24 21.2 °F /  -6 °C 14.5 °F /  -9.7 °C 29.86in /  1011.1hPa NW 5.0mph /  8km/h 11.0mph /  17.7km/h 75% 0.00in /  0mm
11:29 21.2 °F /  -6 °C 14.5 °F /  -9.7 °C 29.86in /  1011.1hPa NW 5.0mph /  8km/h 10.0mph /  16.1km/h 75% 0.00in /  0mm
11:34 21.3 °F /  -5.9 °C 15.2 °F /  -9.3 °C 29.86in /  1011.1hPa NW 4.0mph /  6.4km/h 10.0mph /  16.1km/h 77% 0.00in /  0mm
11:39 21.5 °F /  -5.8 °C 16.3 °F /  -8.7 °C 29.86in /  1011.1hPa WNW 4.0mph /  6.4km/h 12.0mph /  19.3km/h 80% 0.00in /  0mm
11:44 21.4 °F /  -5.9 °C 15.9 °F /  -8.9 °C 29.86in /  1011.1hPa WNW 5.0mph /  8km/h 12.0mph /  19.3km/h 79% 0.00in /  0mm
11:54 21.4 °F /  -5.9 °C 15.3 °F /  -9.3 °C 29.86in /  1011.1hPa NW 3.0mph /  4.8km/h 12.0mph /  19.3km/h 77% 0.00in /  0mm
11:59 21.8 °F /  -5.7 °C 15.7 °F /  -9.1 °C 29.86in /  1011.1hPa WNW 3.0mph /  4.8km/h 8.0mph /  12.9km/h 77% 0.00in /  0mm
12:04 22.3 °F /  -5.4 °C 15.3 °F /  -9.3 °C 29.86in /  1011.1hPa WNW 4.0mph /  6.4km/h 9.0mph /  14.5km/h 74% 0.01in /  0.25mm
12:09 22.0 °F /  -5.6 °C 14.7 °F /  -9.6 °C 29.86in /  1011.1hPa WNW 11.0mph /  17.7km/h 11.0mph /  17.7km/h 73% 0.01in /  0.25mm
12:19 21.8 °F /  -5.7 °C 15.4 °F /  -9.2 °C 29.86in /  1011.1hPa West 9.0mph /  14.5km/h 11.0mph /  17.7km/h 76% 0.01in /  0.25mm
12:24 21.7 °F /  -5.7 °C 15.3 °F /  -9.3 °C 29.86in /  1011.1hPa West 6.0mph /  9.7km/h 12.0mph /  19.3km/h 76% 0.01in /  0.25mm
12:29 21.8 °F /  -5.7 °C 15.1 °F /  -9.4 °C 29.86in /  1011.1hPa West 5.0mph /  8km/h 12.0mph /  19.3km/h 75% 0.01in /  0.25mm
12:34 22.5 °F /  -5.3 °C 15.8 °F /  -9 °C 29.86in /  1011.1hPa NW 6.0mph /  9.7km/h 8.0mph /  12.9km/h 75% 0.01in /  0.25mm
12:39 22.5 °F /  -5.3 °C 15.5 °F /  -9.2 °C 29.86in /  1011.1hPa WNW 6.0mph /  9.7km/h 11.0mph /  17.7km/h 74% 0.02in /  0.51mm
12:44 23.2 °F /  -4.9 °C 15.8 °F /  -9 °C 29.86in /  1011.1hPa WNW 6.0mph /  9.7km/h 12.0mph /  19.3km/h 73% 0.02in /  0.51mm
12:49 23.7 °F /  -4.6 °C 15.3 °F /  -9.3 °C 29.86in /  1011.1hPa WNW 6.0mph /  9.7km/h 13.0mph /  20.9km/h 70% 0.02in /  0.51mm
12:54 24.2 °F /  -4.3 °C 16.1 °F /  -8.8 °C 29.86in /  1011.1hPa NW 6.0mph /  9.7km/h 11.0mph /  17.7km/h 71% 0.02in /  0.51mm
12:59 23.6 °F /  -4.7 °C 15.6 °F /  -9.1 °C 29.86in /  1011.1hPa NW 6.0mph /  9.7km/h 10.0mph /  16.1km/h 71% 0.02in /  0.51mm
13:04 23.9 °F /  -4.5 °C 15.9 °F /  -8.9 °C 29.85in /  1010.7hPa NW 2.0mph /  3.2km/h 9.0mph /  14.5km/h 71% 0.01in /  0.25mm
13:09 25.1 °F /  -3.8 °C 16.7 °F /  -8.5 °C 29.86in /  1011.1hPa NW 4.0mph /  6.4km/h 10.0mph /  16.1km/h 70% 0.02in /  0.51mm
13:14 25.0 °F /  -3.9 °C 16.9 °F /  -8.4 °C 29.86in /  1011.1hPa West 5.0mph /  8km/h 11.0mph /  17.7km/h 71% 0.02in /  0.51mm
13:19 25.5 °F /  -3.6 °C 17.1 °F /  -8.3 °C 29.85in /  1010.7hPa WNW 7.0mph /  11.3km/h 10.0mph /  16.1km/h 70% 0.02in /  0.51mm
13:24 24.8 °F /  -4 °C 15.0 °F /  -9.4 °C 29.85in /  1010.7hPa NW 7.0mph /  11.3km/h 11.0mph /  17.7km/h 66% 0.03in /  0.76mm
13:29 24.0 °F /  -4.4 °C 15.3 °F /  -9.3 °C 29.86in /  1011.1hPa NW 6.0mph /  9.7km/h 11.0mph /  17.7km/h 69% 0.03in /  0.76mm
13:34 24.8 °F /  -4 °C 16.1 °F /  -8.8 °C 29.86in /  1011.1hPa WNW 5.0mph /  8km/h 10.0mph /  16.1km/h 69% 0.03in /  0.76mm
13:39 26.0 °F /  -3.3 °C 16.5 °F /  -8.6 °C 29.86in /  1011.1hPa WNW 5.0mph /  8km/h 10.0mph /  16.1km/h 67% 0.02in /  0.51mm
13:44 26.4 °F /  -3.1 °C 17.6 °F /  -8 °C 29.86in /  1011.1hPa WNW 5.0mph /  8km/h 10.0mph /  16.1km/h 69% 0.02in /  0.51mm
13:49 26.2 °F /  -3.2 °C 16.4 °F /  -8.7 °C 29.85in /  1010.7hPa NNW 3.0mph /  4.8km/h 12.0mph /  19.3km/h 66% 0.02in /  0.51mm
13:54 26.3 °F /  -3.2 °C 16.5 °F /  -8.6 °C 29.85in /  1010.7hPa WSW 3.0mph /  4.8km/h 11.0mph /  17.7km/h 66% 0.02in /  0.51mm
13:59 26.4 °F /  -3.1 °C 16.6 °F /  -8.6 °C 29.85in /  1010.7hPa WSW 6.0mph /  9.7km/h 13.0mph /  20.9km/h 66% 0.02in /  0.51mm
14:04 27.0 °F /  -2.8 °C 17.1 °F /  -8.3 °C 29.85in /  1010.7hPa WNW 6.0mph /  9.7km/h 13.0mph /  20.9km/h 66% 0.02in /  0.51mm
14:09 26.9 °F /  -2.8 °C 16.3 °F /  -8.7 °C 29.85in /  1010.7hPa WNW 6.0mph /  9.7km/h 11.0mph /  17.7km/h 64% 0.01in /  0.25mm
14:14 27.3 °F /  -2.6 °C 16.7 °F /  -8.5 °C 29.85in /  1010.7hPa WNW 6.0mph /  9.7km/h 14.0mph /  22.5km/h 64% 0.01in /  0.25mm
14:19 27.2 °F /  -2.7 °C 16.3 °F /  -8.7 °C 29.85in /  1010.7hPa WNW 6.0mph /  9.7km/h 14.0mph /  22.5km/h 63% 0.01in /  0.25mm
14:24 26.8 °F /  -2.9 °C 16.2 °F /  -8.8 °C 29.85in /  1010.7hPa West 6.0mph /  9.7km/h 13.0mph /  20.9km/h 64% 0.00in /  0mm
14:29 26.9 °F /  -2.8 °C 16.3 °F /  -8.7 °C 29.85in /  1010.7hPa NW 5.0mph /  8km/h 14.0mph /  22.5km/h 64% 0.00in /  0mm
14:34 26.9 °F /  -2.8 °C 16.7 °F /  -8.5 °C 29.85in /  1010.7hPa NW 4.0mph /  6.4km/h 13.0mph /  20.9km/h 65% 0.00in /  0mm
14:39 27.6 °F /  -2.4 °C 16.3 °F /  -8.7 °C 29.86in /  1011.1hPa WNW 6.0mph /  9.7km/h 13.0mph /  20.9km/h 62% 0.00in /  0mm
14:44 27.7 °F /  -2.4 °C 16.7 °F /  -8.5 °C 29.85in /  1010.7hPa WNW 6.0mph /  9.7km/h 12.0mph /  19.3km/h 63% 0.00in /  0mm
14:49 27.8 °F /  -2.3 °C 16.5 °F /  -8.6 °C 29.86in /  1011.1hPa West 5.0mph /  8km/h 14.0mph /  22.5km/h 62% 0.00in /  0mm
14:54 27.2 °F /  -2.7 °C 16.3 °F /  -8.7 °C 29.86in /  1011.1hPa WSW 3.0mph /  4.8km/h 14.0mph /  22.5km/h 63% 0.00in /  0mm
14:59 27.4 °F /  -2.6 °C 16.8 °F /  -8.4 °C 29.86in /  1011.1hPa NW 2.0mph /  3.2km/h 9.0mph /  14.5km/h 64% 0.00in /  0mm
15:04 27.2 °F /  -2.7 °C 16.3 °F /  -8.7 °C 29.86in /  1011.1hPa WNW 7.0mph /  11.3km/h 13.0mph /  20.9km/h 63% 0.00in /  0mm
15:09 26.7 °F /  -2.9 °C 16.1 °F /  -8.8 °C 29.86in /  1011.1hPa WNW 6.0mph /  9.7km/h 13.0mph /  20.9km/h 64% 0.00in /  0mm
15:14 26.6 °F /  -3 °C 16.1 °F /  -8.8 °C 29.86in /  1011.1hPa WSW 8.0mph /  12.9km/h 12.0mph /  19.3km/h 64% 0.00in /  0mm
15:19 27.0 °F /  -2.8 °C 16.1 °F /  -8.8 °C 29.86in /  1011.1hPa WNW 4.0mph /  6.4km/h 11.0mph /  17.7km/h 63% 0.00in /  0mm
15:24 26.7 °F /  -2.9 °C 16.1 °F /  -8.8 °C 29.86in /  1011.1hPa West 6.0mph /  9.7km/h 12.0mph /  19.3km/h 64% 0.00in /  0mm
15:29 26.7 °F /  -2.9 °C 16.1 °F /  -8.8 °C 29.86in /  1011.1hPa WNW 6.0mph /  9.7km/h 10.0mph /  16.1km/h 64% 0.00in /  0mm
15:34 27.2 °F /  -2.7 °C 16.6 °F /  -8.6 °C 29.86in /  1011.1hPa West 7.0mph /  11.3km/h 11.0mph /  17.7km/h 64% 0.00in /  0mm
15:39 27.2 °F /  -2.7 °C 16.3 °F /  -8.7 °C 29.87in /  1011.4hPa WNW 6.0mph /  9.7km/h 12.0mph /  19.3km/h 63% 0.00in /  0mm
15:44 27.4 °F /  -2.6 °C 17.2 °F /  -8.2 °C 29.87in /  1011.4hPa WNW 6.0mph /  9.7km/h 12.0mph /  19.3km/h 65% 0.00in /  0mm
15:49 27.9 °F /  -2.3 °C 16.6 °F /  -8.6 °C 29.87in /  1011.4hPa West 6.0mph /  9.7km/h 12.0mph /  19.3km/h 62% 0.00in /  0mm
15:54 28.0 °F /  -2.2 °C 16.6 °F /  -8.6 °C 29.87in /  1011.4hPa NW 6.0mph /  9.7km/h 13.0mph /  20.9km/h 62% 0.00in /  0mm
15:59 27.6 °F /  -2.4 °C 16.6 °F /  -8.6 °C 29.87in /  1011.4hPa West 7.0mph /  11.3km/h 13.0mph /  20.9km/h 63% 0.00in /  0mm
16:04 27.4 °F /  -2.6 °C 16.1 °F /  -8.8 °C 29.88in /  1011.7hPa West 10.0mph /  16.1km/h 11.0mph /  17.7km/h 62% 0.00in /  0mm
16:09 27.2 °F /  -2.7 °C 16.3 °F /  -8.7 °C 29.88in /  1011.7hPa West 7.0mph /  11.3km/h 15.0mph /  24.1km/h 63% 0.00in /  0mm
16:14 27.2 °F /  -2.7 °C 16.3 °F /  -8.7 °C 29.88in /  1011.7hPa NW 7.0mph /  11.3km/h 13.0mph /  20.9km/h 63% 0.00in /  0mm
16:19 27.0 °F /  -2.8 °C 16.1 °F /  -8.8 °C 29.88in /  1011.7hPa WNW 9.0mph /  14.5km/h 11.0mph /  17.7km/h 63% 0.00in /  0mm
16:24 27.2 °F /  -2.7 °C 16.3 °F /  -8.7 °C 29.88in /  1011.7hPa West 6.0mph /  9.7km/h 11.0mph /  17.7km/h 63% 0.00in /  0mm
16:29 27.2 °F /  -2.7 °C 17.0 °F /  -8.3 °C 29.88in /  1011.7hPa West 6.0mph /  9.7km/h 15.0mph /  24.1km/h 65% 0.00in /  0mm
16:34 27.0 °F /  -2.8 °C 16.4 °F /  -8.7 °C 29.88in /  1011.7hPa West 6.0mph /  9.7km/h 15.0mph /  24.1km/h 64% 0.00in /  0mm
16:39 27.1 °F /  -2.7 °C 16.5 °F /  -8.6 °C 29.88in /  1011.7hPa WNW 9.0mph /  14.5km/h 10.0mph /  16.1km/h 64% 0.00in /  0mm
16:44 27.2 °F /  -2.7 °C 16.3 °F /  -8.7 °C 29.88in /  1011.7hPa SW 6.0mph /  9.7km/h 15.0mph /  24.1km/h 63% 0.00in /  0mm
16:49 27.1 °F /  -2.7 °C 16.9 °F /  -8.4 °C 29.88in /  1011.7hPa WSW 6.0mph /  9.7km/h 15.0mph /  24.1km/h 65% 0.00in /  0mm
16:54 26.9 °F /  -2.8 °C 16.3 °F /  -8.7 °C 29.89in /  1012.1hPa West 6.0mph /  9.7km/h 12.0mph /  19.3km/h 64% 0.00in /  0mm
16:59 26.9 °F /  -2.8 °C 16.7 °F /  -8.5 °C 29.89in /  1012.1hPa West 7.0mph /  11.3km/h 13.0mph /  20.9km/h 65% 0.00in /  0mm
17:04 26.8 °F /  -2.9 °C 16.6 °F /  -8.6 °C 29.89in /  1012.1hPa West 8.0mph /  12.9km/h 12.0mph /  19.3km/h 65% 0.00in /  0mm
17:09 26.7 °F /  -2.9 °C 16.5 °F /  -8.6 °C 29.89in /  1012.1hPa West 6.0mph /  9.7km/h 12.0mph /  19.3km/h 65% 0.00in /  0mm
17:14 26.7 °F /  -2.9 °C 16.1 °F /  -8.8 °C 29.89in /  1012.1hPa SW 10.0mph /  16.1km/h 12.0mph /  19.3km/h 64% 0.00in /  0mm
17:19 26.6 °F /  -3 °C 16.4 °F /  -8.7 °C 29.89in /  1012.1hPa WSW 6.0mph /  9.7km/h 12.0mph /  19.3km/h 65% 0.00in /  0mm
17:24 26.5 °F /  -3.1 °C 16.3 °F /  -8.7 °C 29.89in /  1012.1hPa WNW 6.0mph /  9.7km/h 15.0mph /  24.1km/h 65% 0.00in /  0mm
17:29 26.5 °F /  -3.1 °C 16.3 °F /  -8.7 °C 29.89in /  1012.1hPa West 7.0mph /  11.3km/h 15.0mph /  24.1km/h 65% 0.00in /  0mm
17:34 26.4 °F /  -3.1 °C 16.2 °F /  -8.8 °C 29.90in /  1012.4hPa WNW 5.0mph /  8km/h 13.0mph /  20.9km/h 65% 0.00in /  0mm
17:39 26.3 °F /  -3.2 °C 16.1 °F /  -8.8 °C 29.90in /  1012.4hPa WSW 4.0mph /  6.4km/h 12.0mph /  19.3km/h 65% 0.00in /  0mm
17:44 26.2 °F /  -3.2 °C 16.0 °F /  -8.9 °C 29.90in /  1012.4hPa WNW 7.0mph /  11.3km/h 8.0mph /  12.9km/h 65% 0.00in /  0mm
17:49 26.1 °F /  -3.3 °C 16.3 °F /  -8.7 °C 29.90in /  1012.4hPa West 8.0mph /  12.9km/h 9.0mph /  14.5km/h 66% 0.00in /  0mm
17:54 26.0 °F /  -3.3 °C 16.2 °F /  -8.8 °C 29.90in /  1012.4hPa West 5.0mph /  8km/h 10.0mph /  16.1km/h 66% 0.00in /  0mm
17:59 25.9 °F /  -3.4 °C 16.4 °F /  -8.7 °C 29.90in /  1012.4hPa West 5.0mph /  8km/h 13.0mph /  20.9km/h 67% 0.00in /  0mm
18:04 25.8 °F /  -3.4 °C 16.7 °F /  -8.5 °C 29.90in /  1012.4hPa West 6.0mph /  9.7km/h 13.0mph /  20.9km/h 68% 0.00in /  0mm
18:09 25.6 °F /  -3.6 °C 16.5 °F /  -8.6 °C 29.90in /  1012.4hPa West 6.0mph /  9.7km/h 13.0mph /  20.9km/h 68% 0.00in /  0mm
18:14 25.5 °F /  -3.6 °C 16.4 °F /  -8.7 °C 29.91in /  1012.8hPa West 5.0mph /  8km/h 11.0mph /  17.7km/h 68% 0.00in /  0mm
18:19 25.5 °F /  -3.6 °C 16.4 °F /  -8.7 °C 29.91in /  1012.8hPa West 6.0mph /  9.7km/h 12.0mph /  19.3km/h 68% 0.00in /  0mm
18:24 25.6 °F /  -3.6 °C 16.2 °F /  -8.8 °C 29.91in /  1012.8hPa West 6.0mph /  9.7km/h 10.0mph /  16.1km/h 67% 0.00in /  0mm
18:29 25.6 °F /  -3.6 °C 16.2 °F /  -8.8 °C 29.91in /  1012.8hPa West 2.0mph /  3.2km/h 12.0mph /  19.3km/h 67% 0.00in /  0mm
18:34 25.5 °F /  -3.6 °C 16.4 °F /  -8.7 °C 29.91in /  1012.8hPa WNW 3.0mph /  4.8km/h 10.0mph /  16.1km/h 68% 0.00in /  0mm
18:39 25.5 °F /  -3.6 °C 16.4 °F /  -8.7 °C 29.91in /  1012.8hPa SW 7.0mph /  11.3km/h 10.0mph /  16.1km/h 68% 0.00in /  0mm
18:44 25.5 °F /  -3.6 °C 16.4 °F /  -8.7 °C 29.92in /  1013.1hPa West 7.0mph /  11.3km/h 9.0mph /  14.5km/h 68% 0.00in /  0mm
18:49 25.4 °F /  -3.7 °C 16.3 °F /  -8.7 °C 29.92in /  1013.1hPa West 5.0mph /  8km/h 10.0mph /  16.1km/h 68% 0.00in /  0mm
18:54 25.3 °F /  -3.7 °C 16.2 °F /  -8.8 °C 29.92in /  1013.1hPa WNW 5.0mph /  8km/h 14.0mph /  22.5km/h 68% 0.00in /  0mm
18:59 25.2 °F /  -3.8 °C 16.1 °F /  -8.8 °C 29.91in /  1012.8hPa West 8.0mph /  12.9km/h 11.0mph /  17.7km/h 68% 0.00in /  0mm
19:04 25.1 °F /  -3.8 °C 16.0 °F /  -8.9 °C 29.91in /  1012.8hPa West 5.0mph /  8km/h 11.0mph /  17.7km/h 68% 0.00in /  0mm
19:09 24.9 °F /  -3.9 °C 16.2 °F /  -8.8 °C 29.92in /  1013.1hPa West 4.0mph /  6.4km/h 11.0mph /  17.7km/h 69% 0.00in /  0mm
19:14 24.7 °F /  -4.1 °C 16.0 °F /  -8.9 °C 29.92in /  1013.1hPa West 4.0mph /  6.4km/h 9.0mph /  14.5km/h 69% 0.00in /  0mm
19:19 24.4 °F /  -4.2 °C 15.7 °F /  -9.1 °C 29.92in /  1013.1hPa West 4.0mph /  6.4km/h 10.0mph /  16.1km/h 69% 0.00in /  0mm
19:24 24.3 °F /  -4.3 °C 15.6 °F /  -9.1 °C 29.92in /  1013.1hPa West 4.0mph /  6.4km/h 9.0mph /  14.5km/h 69% 0.00in /  0mm
19:29 24.2 °F /  -4.3 °C 15.8 °F /  -9 °C 29.92in /  1013.1hPa West 4.0mph /  6.4km/h 10.0mph /  16.1km/h 70% 0.00in /  0mm
19:34 24.0 °F /  -4.4 °C 15.6 °F /  -9.1 °C 29.92in /  1013.1hPa NW 6.0mph /  9.7km/h 9.0mph /  14.5km/h 70% 0.00in /  0mm
19:39 23.9 °F /  -4.5 °C 15.5 °F /  -9.2 °C 29.93in /  1013.4hPa West 4.0mph /  6.4km/h 7.0mph /  11.3km/h 70% 0.00in /  0mm
19:44 23.9 °F /  -4.5 °C 15.9 °F /  -8.9 °C 29.93in /  1013.4hPa WNW 7.0mph /  11.3km/h 9.0mph /  14.5km/h 71% 0.00in /  0mm
19:49 23.7 °F /  -4.6 °C 15.7 °F /  -9.1 °C 29.93in /  1013.4hPa WNW 2.0mph /  3.2km/h 7.0mph /  11.3km/h 71% 0.00in /  0mm
19:54 23.4 °F /  -4.8 °C 15.7 °F /  -9.1 °C 29.93in /  1013.4hPa West 2.0mph /  3.2km/h 5.0mph /  8km/h 72% 0.00in /  0mm
19:59 23.2 °F /  -4.9 °C 15.5 °F /  -9.2 °C 29.93in /  1013.4hPa West 3.0mph /  4.8km/h 5.0mph /  8km/h 72% 0.00in /  0mm
20:09 23.1 °F /  -4.9 °C 15.7 °F /  -9.1 °C 29.94in /  1013.8hPa West 2.0mph /  3.2km/h 5.0mph /  8km/h 73% 0.00in /  0mm
20:14 23.0 °F /  -5 °C 15.6 °F /  -9.1 °C 29.94in /  1013.8hPa West 3.0mph /  4.8km/h 7.0mph /  11.3km/h 73% 0.00in /  0mm
20:19 23.1 °F /  -4.9 °C 15.7 °F /  -9.1 °C 29.94in /  1013.8hPa WNW 3.0mph /  4.8km/h 7.0mph /  11.3km/h 73% 0.00in /  0mm
20:24 23.2 °F /  -4.9 °C 15.8 °F /  -9 °C 29.94in /  1013.8hPa West 4.0mph /  6.4km/h 10.0mph /  16.1km/h 73% 0.00in /  0mm
20:29 23.1 °F /  -4.9 °C 15.7 °F /  -9.1 °C 29.94in /  1013.8hPa West 4.0mph /  6.4km/h 9.0mph /  14.5km/h 73% 0.00in /  0mm
20:34 23.0 °F /  -5 °C 15.6 °F /  -9.1 °C 29.95in /  1014.1hPa West 2.0mph /  3.2km/h 8.0mph /  12.9km/h 73% 0.00in /  0mm
20:39 22.9 °F /  -5.1 °C 15.5 °F /  -9.2 °C 29.95in /  1014.1hPa WNW 3.0mph /  4.8km/h 10.0mph /  16.1km/h 73% 0.00in /  0mm
20:44 22.9 °F /  -5.1 °C 15.5 °F /  -9.2 °C 29.95in /  1014.1hPa West 3.0mph /  4.8km/h 8.0mph /  12.9km/h 73% 0.00in /  0mm
20:49 22.9 °F /  -5.1 °C 15.5 °F /  -9.2 °C 29.95in /  1014.1hPa West 9.0mph /  14.5km/h 9.0mph /  14.5km/h 73% 0.00in /  0mm
20:54 22.9 °F /  -5.1 °C 15.5 °F /  -9.2 °C 29.95in /  1014.1hPa WNW 7.0mph /  11.3km/h 11.0mph /  17.7km/h 73% 0.00in /  0mm
20:59 22.8 °F /  -5.1 °C 15.4 °F /  -9.2 °C 29.95in /  1014.1hPa WSW 5.0mph /  8km/h 12.0mph /  19.3km/h 73% 0.00in /  0mm
21:04 22.8 °F /  -5.1 °C 15.4 °F /  -9.2 °C 29.95in /  1014.1hPa WNW 5.0mph /  8km/h 11.0mph /  17.7km/h 73% 0.00in /  0mm
21:09 22.8 °F /  -5.1 °C 15.4 °F /  -9.2 °C 29.95in /  1014.1hPa WNW 6.0mph /  9.7km/h 11.0mph /  17.7km/h 73% 0.00in /  0mm
21:14 22.6 °F /  -5.2 °C 15.2 °F /  -9.3 °C 29.95in /  1014.1hPa West 4.0mph /  6.4km/h 10.0mph /  16.1km/h 73% 0.00in /  0mm
21:19 22.6 °F /  -5.2 °C 15.2 °F /  -9.3 °C 29.95in /  1014.1hPa West 5.0mph /  8km/h 9.0mph /  14.5km/h 73% 0.00in /  0mm
21:24 22.6 °F /  -5.2 °C 15.6 °F /  -9.1 °C 29.95in /  1014.1hPa West 5.0mph /  8km/h 9.0mph /  14.5km/h 74% 0.00in /  0mm
21:29 22.4 °F /  -5.3 °C 15.4 °F /  -9.2 °C 29.96in /  1014.4hPa West 4.0mph /  6.4km/h 9.0mph /  14.5km/h 74% 0.00in /  0mm
21:34 22.3 °F /  -5.4 °C 15.3 °F /  -9.3 °C 29.96in /  1014.4hPa West 6.0mph /  9.7km/h 8.0mph /  12.9km/h 74% 0.00in /  0mm
21:39 22.2 °F /  -5.4 °C 15.2 °F /  -9.3 °C 29.96in /  1014.4hPa West 3.0mph /  4.8km/h 8.0mph /  12.9km/h 74% 0.00in /  0mm
21:44 22.1 °F /  -5.5 °C 15.1 °F /  -9.4 °C 29.96in /  1014.4hPa West 4.0mph /  6.4km/h 7.0mph /  11.3km/h 74% 0.00in /  0mm
21:49 22.0 °F /  -5.6 °C 15.0 °F /  -9.4 °C 29.96in /  1014.4hPa West 3.0mph /  4.8km/h 7.0mph /  11.3km/h 74% 0.00in /  0mm
21:54 21.8 °F /  -5.7 °C 15.1 °F /  -9.4 °C 29.96in /  1014.4hPa West 2.0mph /  3.2km/h 5.0mph /  8km/h 75% 0.00in /  0mm
21:59 21.8 °F /  -5.7 °C 15.1 °F /  -9.4 °C 29.96in /  1014.4hPa WSW 6.0mph /  9.7km/h 6.0mph /  9.7km/h 75% 0.00in /  0mm
22:04 21.7 °F /  -5.7 °C 15.0 °F /  -9.4 °C 29.96in /  1014.4hPa West 3.0mph /  4.8km/h 6.0mph /  9.7km/h 75% 0.00in /  0mm
22:09 21.5 °F /  -5.8 °C 14.8 °F /  -9.6 °C 29.96in /  1014.4hPa WNW 3.0mph /  4.8km/h 4.0mph /  6.4km/h 75% 0.00in /  0mm
22:14 21.4 °F /  -5.9 °C 14.7 °F /  -9.6 °C 29.96in /  1014.4hPa West 2.0mph /  3.2km/h 4.0mph /  6.4km/h 75% 0.00in /  0mm
22:19 21.4 °F /  -5.9 °C 15.0 °F /  -9.4 °C 29.96in /  1014.4hPa West 2.0mph /  3.2km/h 4.0mph /  6.4km/h 76% 0.00in /  0mm
22:24 21.3 °F /  -5.9 °C 14.9 °F /  -9.5 °C 29.96in /  1014.4hPa West 1.0mph /  1.6km/h 4.0mph /  6.4km/h 76% 0.00in /  0mm
22:29 21.2 °F /  -6 °C 14.8 °F /  -9.6 °C 29.96in /  1014.4hPa West 1.0mph /  1.6km/h 4.0mph /  6.4km/h 76% 0.00in /  0mm
22:34 21.0 °F /  -6.1 °C 14.6 °F /  -9.7 °C 29.96in /  1014.4hPa West 1.0mph /  1.6km/h 3.0mph /  4.8km/h 76% 0.00in /  0mm
22:39 21.1 °F /  -6.1 °C 15.0 °F /  -9.4 °C 29.96in /  1014.4hPa West 2.0mph /  3.2km/h 5.0mph /  8km/h 77% 0.00in /  0mm
22:44 21.3 °F /  -5.9 °C 15.2 °F /  -9.3 °C 29.96in /  1014.4hPa WSW 2.0mph /  3.2km/h 5.0mph /  8km/h 77% 0.00in /  0mm
22:49 21.5 °F /  -5.8 °C 15.1 °F /  -9.4 °C 29.96in /  1014.4hPa WSW 1.0mph /  1.6km/h 5.0mph /  8km/h 76% 0.00in /  0mm
22:54 21.7 °F /  -5.7 °C 15.6 °F /  -9.1 °C 29.96in /  1014.4hPa West 2.0mph /  3.2km/h 6.0mph /  9.7km/h 77% 0.00in /  0mm
22:59 21.9 °F /  -5.6 °C 15.5 °F /  -9.2 °C 29.96in /  1014.4hPa West 3.0mph /  4.8km/h 6.0mph /  9.7km/h 76% 0.00in /  0mm
23:04 22.0 °F /  -5.6 °C 15.6 °F /  -9.1 °C 29.96in /  1014.4hPa West 5.0mph /  8km/h 6.0mph /  9.7km/h 76% 0.00in /  0mm
23:09 22.1 °F /  -5.5 °C 15.7 °F /  -9.1 °C 29.96in /  1014.4hPa West 10.0mph /  16.1km/h 10.0mph /  16.1km/h 76% 0.00in /  0mm
23:14 22.2 °F /  -5.4 °C 15.8 °F /  -9 °C 29.96in /  1014.4hPa NW 5.0mph /  8km/h 10.0mph /  16.1km/h 76% 0.00in /  0mm
23:19 22.2 °F /  -5.4 °C 15.5 °F /  -9.2 °C 29.97in /  1014.8hPa WNW 4.0mph /  6.4km/h 10.0mph /  16.1km/h 75% 0.00in /  0mm
23:24 22.3 °F /  -5.4 °C 15.6 °F /  -9.1 °C 29.97in /  1014.8hPa West 4.0mph /  6.4km/h 10.0mph /  16.1km/h 75% 0.00in /  0mm
23:29 22.4 °F /  -5.3 °C 15.7 °F /  -9.1 °C 29.97in /  1014.8hPa West 2.0mph /  3.2km/h 9.0mph /  14.5km/h 75% 0.00in /  0mm
23:34 22.4 °F /  -5.3 °C 15.7 °F /  -9.1 °C 29.97in /  1014.8hPa West 4.0mph /  6.4km/h 9.0mph /  14.5km/h 75% 0.00in /  0mm
23:39 22.5 °F /  -5.3 °C 15.8 °F /  -9 °C 29.97in /  1014.8hPa West 5.0mph /  8km/h 9.0mph /  14.5km/h 75% 0.00in /  0mm
23:44 22.5 °F /  -5.3 °C 15.8 °F /  -9 °C 29.97in /  1014.8hPa WNW 3.0mph /  4.8km/h 8.0mph /  12.9km/h 75% 0.00in /  0mm
23:49 22.5 °F /  -5.3 °C 15.8 °F /  -9 °C 29.97in /  1014.8hPa NNW 3.0mph /  4.8km/h 11.0mph /  17.7km/h 75% 0.00in /  0mm
23:54 22.5 °F /  -5.3 °C 15.8 °F /  -9 °C 29.97in /  1014.8hPa West 3.0mph /  4.8km/h 8.0mph /  12.9km/h 75% 0.00in /  0mm
23:59 22.5 °F /  -5.3 °C 15.8 °F /  -9 °C 29.97in /  1014.8hPa WNW 5.0mph /  8km/h 8.0mph /  12.9km/h 75% 0.00in /  0mm
Buffalo, New York, USA
Compliments of Weather Underground - 2.5 mb